Irpin, Ukraine
Current Conditions -  °F | °C
As of 1:00 PM on Monday 20 Oct 2014 (Local Time) from UKKM Reporting Station
Broken Clouds Broken Clouds  
Wind Chill: 61°   Ceiling: 2700
Heat Index: 61°   Visibility: 6mi
Dew Point: 54°   Wind: 13mph
Humidity: 77%   Direction: 280°W
Pressure: 29.74"   Gusts: NA
Location:  50.52°N, 30.25°E
Report Text: UKKM 201000Z 28006MPS 250V310 9999 FEW025CB BKN027 16/12 Q1007 15CLRD70 TEMPO 27011G16MPS
Loading
Personal Weather Stations






























Interactive Weather Map
Tropical Storm Tracking
New forecast layout! Learn more

10-Day Weather Forecast

Advertisements
Track Severe Weather on mobile